createdAt,value
2022-10-25T00:00:49.223Z,2.33
2022-10-25T00:02:24.224Z,1.93
2022-10-25T00:03:46.653Z,1.90
2022-10-25T00:05:11.628Z,1.80
2022-10-25T00:06:33.697Z,2.23
2022-10-25T00:07:55.766Z,2.90
2022-10-25T00:09:17.844Z,2.30
2022-10-25T00:10:39.917Z,2.57
2022-10-25T00:12:02.153Z,1.90
2022-10-25T00:13:24.347Z,2.77
2022-10-25T00:14:46.504Z,2.40
2022-10-25T00:16:15.053Z,3.03
2022-10-25T00:17:37.170Z,2.27
2022-10-25T00:18:59.295Z,2.23
2022-10-25T00:20:21.509Z,2.27
2022-10-25T00:21:43.818Z,2.07
2022-10-25T00:23:06.022Z,2.77
2022-10-25T00:24:28.262Z,2.60
2022-10-25T00:25:50.432Z,2.40
2022-10-25T00:27:12.494Z,2.23
2022-10-25T00:28:34.856Z,2.40
2022-10-25T00:29:56.950Z,2.27
2022-10-25T00:31:19.260Z,2.37
2022-10-25T00:32:41.440Z,2.37
2022-10-25T00:34:03.785Z,2.10
2022-10-25T00:35:26.221Z,1.93
2022-10-25T00:36:48.484Z,2.40
2022-10-25T00:38:10.645Z,2.50
2022-10-25T00:39:32.727Z,2.20
2022-10-25T00:40:54.895Z,2.30
2022-10-25T00:42:26.309Z,2.10
2022-10-25T00:43:54.098Z,2.40
2022-10-25T00:45:28.316Z,2.40
2022-10-25T00:46:50.458Z,2.17
2022-10-25T00:48:12.828Z,1.97
2022-10-25T00:49:35.116Z,2.20
2022-10-25T00:50:57.940Z,2.20
2022-10-25T00:52:20.643Z,1.93
2022-10-25T00:53:43.312Z,2.10
2022-10-25T00:55:06.679Z,2.10
2022-10-25T00:56:33.812Z,2.30
2022-10-25T00:58:01.874Z,2.07
2022-10-25T00:59:26.130Z,2.90
2022-10-25T01:00:49.167Z,2.30
2022-10-25T01:02:11.844Z,2.60
2022-10-25T01:03:36.886Z,2.30
2022-10-25T01:04:59.054Z,2.20
2022-10-25T01:06:31.481Z,2.67
2022-10-25T01:07:53.934Z,2.20
2022-10-25T01:09:20.645Z,2.20
2022-10-25T01:10:42.791Z,2.10
2022-10-25T01:12:05.094Z,2.70
2022-10-25T01:13:27.208Z,2.90
2022-10-25T01:14:51.462Z,2.93
2022-10-25T01:16:32.612Z,2.40
2022-10-25T01:18:10.594Z,2.10
2022-10-25T01:19:57.538Z,2.70
2022-10-25T01:21:45.525Z,2.67
2022-10-25T01:23:15.325Z,2.40
2022-10-25T01:24:52.432Z,2.40
2022-10-25T01:26:37.722Z,3.30
2022-10-25T01:28:15.410Z,2.53
2022-10-25T01:30:08.549Z,3.00
2022-10-25T01:32:14.720Z,2.47
2022-10-25T01:33:56.682Z,1.90
2022-10-25T01:35:29.542Z,2.60
2022-10-25T01:37:42.170Z,2.30
2022-10-25T01:39:22.129Z,2.57
2022-10-25T01:40:47.169Z,2.63
2022-10-25T01:42:33.007Z,2.83
2022-10-25T01:44:30.577Z,2.63
2022-10-25T01:45:57.991Z,2.30
2022-10-25T01:47:33.006Z,2.20
2022-10-25T01:49:19.864Z,2.83
2022-10-25T01:50:45.621Z,2.03
2022-10-25T01:52:07.734Z,2.87
2022-10-25T01:53:29.761Z,2.37
2022-10-25T01:54:52.352Z,2.40
2022-10-25T01:56:30.530Z,2.20
2022-10-25T01:57:58.727Z,2.40
2022-10-25T01:59:29.753Z,2.17
2022-10-25T02:01:29.453Z,2.87
2022-10-25T02:02:57.369Z,2.30
2022-10-25T02:04:42.411Z,2.60
2022-10-25T02:06:32.518Z,3.23
2022-10-25T02:08:12.637Z,2.27
2022-10-25T02:09:45.574Z,3.10
2022-10-25T02:11:27.435Z,2.10
2022-10-25T02:13:02.037Z,2.00
2022-10-25T02:14:31.423Z,2.57
2022-10-25T02:15:58.885Z,2.37
2022-10-25T02:17:25.645Z,2.60
2022-10-25T02:18:53.287Z,2.57
2022-10-25T02:20:18.784Z,2.33
2022-10-25T02:21:43.961Z,1.80
2022-10-25T02:23:06.342Z,2.50
2022-10-25T02:24:31.253Z,2.37
2022-10-25T02:25:54.249Z,2.60
2022-10-25T02:27:18.069Z,2.60
2022-10-25T02:28:41.923Z,1.80
2022-10-25T02:30:05.233Z,2.80
2022-10-25T02:31:28.963Z,2.40
2022-10-25T02:32:51.584Z,1.80
2022-10-25T02:34:13.591Z,2.40
2022-10-25T02:35:35.638Z,2.93
2022-10-25T02:36:58.198Z,2.30
2022-10-25T02:38:20.223Z,2.20
2022-10-25T02:39:42.840Z,2.30
2022-10-25T02:41:06.570Z,2.20
2022-10-25T02:42:28.623Z,2.20
2022-10-25T02:43:50.749Z,2.87
2022-10-25T02:45:12.883Z,2.03
2022-10-25T02:46:35.027Z,2.33
2022-10-25T02:47:57.080Z,2.30
2022-10-25T02:49:19.234Z,2.47
2022-10-25T02:50:41.276Z,2.27
2022-10-25T02:52:03.404Z,2.60
2022-10-25T02:53:25.415Z,2.70
2022-10-25T02:54:47.443Z,2.37
2022-10-25T02:56:19.547Z,2.13
2022-10-25T02:57:41.555Z,2.20
2022-10-25T02:59:03.753Z,2.73
2022-10-25T03:00:25.808Z,2.20
2022-10-25T03:01:48.713Z,2.43
2022-10-25T03:03:10.911Z,1.80
2022-10-25T03:04:32.945Z,2.20
2022-10-25T03:05:55.057Z,2.00
2022-10-25T03:07:17.112Z,2.93
2022-10-25T03:08:40.789Z,2.17
2022-10-25T03:10:02.877Z,1.63
2022-10-25T03:11:24.901Z,2.20
2022-10-25T03:12:47.095Z,2.03
2022-10-25T03:14:09.254Z,2.87
2022-10-25T03:15:31.333Z,1.67
2022-10-25T03:16:53.364Z,1.97
2022-10-25T03:18:15.651Z,2.23
2022-10-25T03:19:37.642Z,2.40
2022-10-25T03:21:01.441Z,2.20
2022-10-25T03:22:23.457Z,2.27
2022-10-25T03:23:45.466Z,2.13
2022-10-25T03:26:30.885Z,2.40
2022-10-25T03:27:52.936Z,2.30
2022-10-25T03:29:14.945Z,2.10
2022-10-25T03:30:37.091Z,2.40
2022-10-25T03:31:59.090Z,2.10
2022-10-25T03:33:21.314Z,2.40
2022-10-25T03:34:43.398Z,2.30
2022-10-25T03:36:05.871Z,3.10
2022-10-25T03:37:27.903Z,2.33
2022-10-25T03:38:49.865Z,2.37
2022-10-25T03:40:12.175Z,2.47
2022-10-25T03:41:34.222Z,2.70
2022-10-25T03:42:56.284Z,2.20
2022-10-25T03:44:18.289Z,2.60
2022-10-25T03:45:40.309Z,2.33
2022-10-25T03:47:02.348Z,3.23
2022-10-25T03:48:24.331Z,2.63
2022-10-25T03:49:46.487Z,2.17
2022-10-25T03:51:08.564Z,3.50
2022-10-25T03:52:30.651Z,3.50
2022-10-25T03:53:52.656Z,1.90
2022-10-25T03:55:14.718Z,2.77
2022-10-25T03:56:36.760Z,2.20
2022-10-25T03:57:59.002Z,2.40
2022-10-25T03:59:21.035Z,2.03
2022-10-25T04:00:43.087Z,2.30
2022-10-25T04:02:05.217Z,3.30
2022-10-25T04:03:27.422Z,2.40
2022-10-25T04:04:49.470Z,2.37
2022-10-25T04:06:11.627Z,3.07
2022-10-25T04:07:33.662Z,2.80
2022-10-25T04:08:56.612Z,2.33
2022-10-25T04:10:21.792Z,2.83
2022-10-25T04:11:43.890Z,2.03
2022-10-25T04:13:05.960Z,2.30
2022-10-25T04:14:28.015Z,2.40
2022-10-25T04:15:50.180Z,2.30
2022-10-25T04:17:12.286Z,2.80
2022-10-25T04:18:34.544Z,2.27
2022-10-25T04:19:56.560Z,2.27
2022-10-25T04:21:18.810Z,2.60
2022-10-25T04:22:40.840Z,2.63
2022-10-25T04:24:04.411Z,3.00
2022-10-25T04:25:28.094Z,2.33
2022-10-25T04:26:50.152Z,2.53
2022-10-25T04:28:12.169Z,2.87
2022-10-25T04:29:34.180Z,3.00
2022-10-25T04:30:56.184Z,2.03
2022-10-25T04:33:52.353Z,2.30
2022-10-25T04:35:14.481Z,2.60
2022-10-25T04:36:36.564Z,2.40
2022-10-25T04:37:59.243Z,2.77
2022-10-25T04:39:21.262Z,2.40
2022-10-25T04:40:43.262Z,2.50
2022-10-25T04:42:05.410Z,2.70
2022-10-25T04:43:29.051Z,2.77
2022-10-25T04:44:51.136Z,2.17
2022-10-25T04:46:13.488Z,3.07
2022-10-25T04:47:35.649Z,2.73
2022-10-25T04:48:57.635Z,2.60
2022-10-25T04:50:19.696Z,2.90
2022-10-25T04:51:42.001Z,2.63
2022-10-25T04:53:05.016Z,3.00
2022-10-25T04:54:27.127Z,2.90
2022-10-25T04:55:58.694Z,2.13
2022-10-25T04:57:20.709Z,3.00
2022-10-25T04:58:42.739Z,2.33
2022-10-25T05:00:05.377Z,3.00
2022-10-25T05:01:27.469Z,3.47
2022-10-25T05:02:52.538Z,2.87
2022-10-25T05:04:14.576Z,2.97
2022-10-25T05:05:36.587Z,3.33
2022-10-25T05:06:58.561Z,3.17
2022-10-25T05:08:20.628Z,2.77
2022-10-25T05:09:45.192Z,3.50
2022-10-25T05:11:11.695Z,2.57
2022-10-25T05:12:33.724Z,2.93
2022-10-25T05:13:55.797Z,2.97
2022-10-25T05:15:17.808Z,3.20
2022-10-25T05:16:40.029Z,2.90
2022-10-25T05:18:02.342Z,2.73
2022-10-25T05:19:24.404Z,3.67
2022-10-25T05:20:55.223Z,2.90
2022-10-25T05:22:17.302Z,3.10
2022-10-25T05:23:39.456Z,2.80
2022-10-25T05:25:01.473Z,4.17
2022-10-25T05:26:23.647Z,3.40
2022-10-25T05:27:45.728Z,3.33
2022-10-25T05:29:10.480Z,3.33
2022-10-25T05:30:32.584Z,3.50
2022-10-25T05:31:54.659Z,3.10
2022-10-25T05:33:16.746Z,3.30
2022-10-25T05:34:38.739Z,2.73
2022-10-25T05:36:01.924Z,3.20
2022-10-25T05:37:23.989Z,3.00
2022-10-25T05:38:46.362Z,2.70
2022-10-25T05:40:09.139Z,3.30
2022-10-25T05:41:34.556Z,3.03
2022-10-25T05:42:59.036Z,3.10
2022-10-25T05:44:21.072Z,3.00
2022-10-25T05:45:43.065Z,3.10
2022-10-25T05:47:05.103Z,3.30
2022-10-25T05:48:27.144Z,2.93
2022-10-25T05:49:49.123Z,2.50
2022-10-25T05:51:32.487Z,3.33
2022-10-25T05:52:55.586Z,2.90
2022-10-25T05:54:17.739Z,3.43
2022-10-25T05:55:39.843Z,3.17
2022-10-25T05:57:01.830Z,3.33
2022-10-25T05:58:23.873Z,2.63
2022-10-25T05:59:45.861Z,2.67
2022-10-25T06:01:13.477Z,2.60
2022-10-25T06:02:35.566Z,3.10
2022-10-25T06:03:57.631Z,2.60
2022-10-25T06:05:21.794Z,3.20
2022-10-25T06:06:47.535Z,2.60
2022-10-25T06:08:09.557Z,3.20
2022-10-25T06:09:31.575Z,2.40
2022-10-25T06:10:53.655Z,2.43
2022-10-25T06:12:15.760Z,2.97
2022-10-25T06:13:38.644Z,2.40
2022-10-25T06:15:00.610Z,2.50
2022-10-25T06:16:23.075Z,2.50
2022-10-25T06:17:45.096Z,2.63
2022-10-25T06:19:07.404Z,2.43
2022-10-25T06:20:29.636Z,2.33
2022-10-25T06:21:54.235Z,2.73
2022-10-25T06:23:16.276Z,2.53
2022-10-25T06:24:38.373Z,2.10
2022-10-25T06:26:05.362Z,2.20
2022-10-25T06:27:27.365Z,2.70
2022-10-25T06:28:53.074Z,3.27
2022-10-25T06:30:15.159Z,3.60
2022-10-25T06:31:37.201Z,3.00
2022-10-25T06:33:00.322Z,3.20
2022-10-25T06:34:22.482Z,3.03
2022-10-25T06:35:44.461Z,3.10
2022-10-25T06:37:06.484Z,2.60
2022-10-25T06:38:29.650Z,2.80
2022-10-25T06:39:51.627Z,3.30
2022-10-25T06:41:16.003Z,3.13
2022-10-25T06:42:38.026Z,4.70
2022-10-25T06:44:05.385Z,4.13
2022-10-25T06:45:28.908Z,4.10
2022-10-25T06:48:32.953Z,4.53
2022-10-25T06:49:54.966Z,4.70
2022-10-25T06:51:17.192Z,5.37
2022-10-25T06:52:39.209Z,4.50
2022-10-25T06:54:05.516Z,4.73
2022-10-25T06:55:27.481Z,4.70
2022-10-25T06:56:49.654Z,4.93
2022-10-25T06:58:11.726Z,5.57
2022-10-25T06:59:33.761Z,5.50
2022-10-25T07:00:55.818Z,5.70
2022-10-25T07:02:17.979Z,5.70
2022-10-25T07:03:40.971Z,5.53
2022-10-25T07:05:03.147Z,6.03
2022-10-25T07:06:30.249Z,6.00
2022-10-25T07:07:52.574Z,5.80
2022-10-25T07:09:15.696Z,5.73
2022-10-25T07:10:37.875Z,6.30
2022-10-25T07:11:59.879Z,6.50
2022-10-25T07:13:22.925Z,6.23
2022-10-25T07:14:45.010Z,6.03
2022-10-25T07:16:09.734Z,6.53
2022-10-25T07:17:31.745Z,5.63
2022-10-25T07:19:01.395Z,6.10
2022-10-25T07:20:23.374Z,6.40
2022-10-25T07:21:45.359Z,7.90
2022-10-25T07:23:08.804Z,7.03
2022-10-25T07:24:31.391Z,7.40
2022-10-25T07:25:53.477Z,6.27
2022-10-25T07:27:15.650Z,6.90
2022-10-25T07:28:37.986Z,7.27
2022-10-25T07:30:00.062Z,7.03
2022-10-25T07:31:24.646Z,5.93
2022-10-25T07:32:46.631Z,6.37
2022-10-25T07:34:13.336Z,5.60
2022-10-25T07:35:41.993Z,6.50
2022-10-25T07:37:14.464Z,5.90
2022-10-25T07:38:36.580Z,5.97
2022-10-25T07:39:58.839Z,4.47
2022-10-25T07:41:20.933Z,5.13
2022-10-25T07:42:42.932Z,5.77
2022-10-25T07:44:04.993Z,6.60
2022-10-25T07:45:28.868Z,5.50
2022-10-25T07:46:53.972Z,5.77
2022-10-25T07:48:16.134Z,5.23
2022-10-25T07:49:39.909Z,4.50
2022-10-25T07:51:10.995Z,4.67
2022-10-25T07:52:33.032Z,6.00
2022-10-25T07:53:55.088Z,6.27
2022-10-25T07:55:17.096Z,5.77
2022-10-25T07:56:39.103Z,5.53
2022-10-25T07:58:02.285Z,5.67
2022-10-25T07:59:25.013Z,6.67
2022-10-25T08:00:47.426Z,5.50
2022-10-25T08:02:20.101Z,5.30
2022-10-25T08:03:45.073Z,5.40
2022-10-25T08:05:09.361Z,5.30
2022-10-25T08:06:31.352Z,5.23
2022-10-25T08:07:53.575Z,6.03
2022-10-25T08:09:36.900Z,5.20
2022-10-25T08:10:59.468Z,5.40
2022-10-25T08:12:22.660Z,5.10
2022-10-25T08:13:47.322Z,5.73
2022-10-25T08:15:09.864Z,4.63
2022-10-25T08:16:31.865Z,4.90
2022-10-25T08:18:00.747Z,5.60
2022-10-25T08:19:22.783Z,5.53
2022-10-25T08:21:01.218Z,6.70
2022-10-25T08:22:24.630Z,8.73
2022-10-25T08:23:46.845Z,7.97
2022-10-25T08:25:09.386Z,7.60
2022-10-25T08:26:36.596Z,6.70
2022-10-25T08:27:59.232Z,6.27
2022-10-25T08:29:21.303Z,4.77
2022-10-25T08:30:43.717Z,5.47
2022-10-25T08:32:05.866Z,4.20
2022-10-25T08:33:27.920Z,4.87
2022-10-25T08:34:49.901Z,4.43
2022-10-25T08:36:11.901Z,3.97
2022-10-25T08:37:34.148Z,4.67
2022-10-25T08:38:56.184Z,5.10
2022-10-25T08:40:26.324Z,5.40
2022-10-25T08:41:53.459Z,4.80
2022-10-25T08:43:45.909Z,4.87
2022-10-25T08:45:19.048Z,4.23
2022-10-25T08:46:59.156Z,5.30
2022-10-25T08:48:27.127Z,5.83
2022-10-25T08:49:58.928Z,4.70
2022-10-25T08:51:35.797Z,4.57
2022-10-25T08:53:01.598Z,4.80
2022-10-25T08:54:37.722Z,3.90
2022-10-25T08:56:17.410Z,3.90
2022-10-25T08:57:46.869Z,4.50
2022-10-25T08:59:16.141Z,4.93
2022-10-25T09:00:40.408Z,4.93
2022-10-25T09:02:03.264Z,4.63
2022-10-25T09:03:26.947Z,5.30
2022-10-25T09:04:49.016Z,4.83
2022-10-25T09:06:37.572Z,4.23
2022-10-25T09:08:03.710Z,4.07
2022-10-25T09:09:39.715Z,4.83
2022-10-25T09:11:18.602Z,4.20
2022-10-25T09:12:55.441Z,3.80
2022-10-25T09:14:39.264Z,4.47
2022-10-25T09:16:16.330Z,3.33
2022-10-25T09:17:50.343Z,3.30
2022-10-25T09:19:29.419Z,4.20
2022-10-25T09:20:52.663Z,4.50
2022-10-25T09:22:30.568Z,4.30
2022-10-25T09:24:09.861Z,3.00
2022-10-25T09:25:53.035Z,4.47
2022-10-25T09:27:24.875Z,4.27
2022-10-25T09:28:50.276Z,4.00
2022-10-25T09:30:13.553Z,4.83
2022-10-25T09:31:44.121Z,4.17
2022-10-25T09:33:11.709Z,3.43
2022-10-25T09:34:33.772Z,3.73
2022-10-25T09:35:57.410Z,4.20
2022-10-25T09:37:29.839Z,4.00
2022-10-25T09:38:59.898Z,4.13
2022-10-25T09:40:24.895Z,3.27
2022-10-25T09:41:53.122Z,3.53
2022-10-25T09:43:19.846Z,3.67
2022-10-25T09:45:00.396Z,3.50
2022-10-25T09:46:51.610Z,3.33
2022-10-25T09:48:57.810Z,3.80
2022-10-25T09:50:30.098Z,3.83
2022-10-25T09:52:00.123Z,3.17
2022-10-25T09:53:24.153Z,3.27
2022-10-25T09:54:53.803Z,3.70
2022-10-25T09:56:17.269Z,3.40
2022-10-25T09:57:39.373Z,3.83
2022-10-25T09:59:04.387Z,3.33
2022-10-25T10:00:26.513Z,3.77
2022-10-25T10:01:48.686Z,3.30
2022-10-25T10:03:12.870Z,3.20
2022-10-25T10:04:39.225Z,3.47
2022-10-25T10:06:07.369Z,3.40
2022-10-25T10:07:34.476Z,3.10
2022-10-25T10:09:16.468Z,3.40
2022-10-25T10:10:39.900Z,3.30
2022-10-25T10:12:05.493Z,3.40
2022-10-25T10:13:43.045Z,3.40
2022-10-25T10:15:28.586Z,3.60
2022-10-25T10:16:54.362Z,3.30
2022-10-25T10:18:31.003Z,3.37
2022-10-25T10:20:25.864Z,3.40
2022-10-25T10:21:55.262Z,3.27
2022-10-25T10:23:18.063Z,3.60
2022-10-25T10:24:42.652Z,3.10
2022-10-25T10:26:30.621Z,3.30
2022-10-25T10:27:55.978Z,4.20
2022-10-25T10:29:29.270Z,3.70
2022-10-25T10:30:57.153Z,3.53
2022-10-25T10:32:33.645Z,3.80
2022-10-25T10:33:55.741Z,3.57
2022-10-25T10:35:37.129Z,3.50
2022-10-25T10:37:12.927Z,3.43
2022-10-25T10:38:35.087Z,3.33
2022-10-25T10:40:09.086Z,3.97
2022-10-25T10:41:31.089Z,3.30
2022-10-25T10:42:55.761Z,3.40
2022-10-25T10:44:20.977Z,3.63
2022-10-25T10:45:50.364Z,3.83
2022-10-25T10:47:20.950Z,4.23
2022-10-25T10:48:45.401Z,3.87
2022-10-25T10:50:22.472Z,3.43
2022-10-25T10:51:46.103Z,3.23
2022-10-25T10:53:29.538Z,3.37
2022-10-25T10:54:52.612Z,3.80
2022-10-25T10:56:23.231Z,3.10
2022-10-25T10:57:45.569Z,4.20
2022-10-25T10:59:28.541Z,4.30
2022-10-25T11:00:51.595Z,4.80
2022-10-25T11:02:28.444Z,4.60
2022-10-25T11:03:59.819Z,4.07
2022-10-25T11:05:27.601Z,4.40
2022-10-25T11:06:49.614Z,4.60
2022-10-25T11:08:11.619Z,3.47
2022-10-25T11:09:33.648Z,3.80
2022-10-25T11:11:13.746Z,3.07
2022-10-25T11:12:40.922Z,3.20
2022-10-25T11:14:15.951Z,3.10
2022-10-25T11:16:04.973Z,3.20
2022-10-25T11:17:34.136Z,3.47
2022-10-25T11:19:19.181Z,3.30
2022-10-25T11:20:50.739Z,2.90
2022-10-25T11:22:40.199Z,3.40
2022-10-25T11:24:27.085Z,3.07
2022-10-25T11:26:21.052Z,3.80
2022-10-25T11:28:15.912Z,3.40
2022-10-25T11:29:45.529Z,4.07
2022-10-25T11:31:23.494Z,3.67
2022-10-25T11:33:07.318Z,4.20
2022-10-25T11:34:51.119Z,3.10
2022-10-25T11:36:42.550Z,3.43
2022-10-25T11:38:19.414Z,3.00
2022-10-25T11:40:16.299Z,3.40
2022-10-25T11:41:45.423Z,3.17
2022-10-25T11:43:16.634Z,3.00
2022-10-25T11:44:45.799Z,3.07
2022-10-25T11:46:43.692Z,2.70
2022-10-25T11:48:11.599Z,3.13
2022-10-25T11:50:27.632Z,2.53
2022-10-25T11:52:02.763Z,2.60
2022-10-25T11:54:02.280Z,2.50
2022-10-25T11:55:30.169Z,3.23
2022-10-25T11:57:04.833Z,3.03
2022-10-25T11:58:44.628Z,2.80
2022-10-25T12:00:12.668Z,2.57
2022-10-25T12:02:03.663Z,2.57
2022-10-25T12:03:34.314Z,3.50
2022-10-25T12:05:15.049Z,3.10
2022-10-25T12:06:42.531Z,3.00
2022-10-25T12:08:31.072Z,3.30
2022-10-25T12:10:10.760Z,2.97
2022-10-25T12:11:57.503Z,3.10
2022-10-25T12:13:21.967Z,3.00
2022-10-25T12:14:49.262Z,4.00
2022-10-25T12:16:15.241Z,3.27
2022-10-25T12:17:37.316Z,4.27
2022-10-25T12:19:23.035Z,4.10
2022-10-25T12:20:47.906Z,3.67
2022-10-25T12:22:17.187Z,2.90
2022-10-25T12:23:57.630Z,2.70
2022-10-25T12:25:34.929Z,3.03
2022-10-25T12:26:58.081Z,3.70
2022-10-25T12:28:31.926Z,2.87
2022-10-25T12:29:58.552Z,3.03
2022-10-25T12:31:28.638Z,3.00
2022-10-25T12:33:19.396Z,2.47
2022-10-25T12:34:45.770Z,2.60
2022-10-25T12:36:18.304Z,3.20
2022-10-25T12:37:49.020Z,3.63
2022-10-25T12:39:18.381Z,2.73
2022-10-25T12:40:45.161Z,3.33
2022-10-25T12:42:21.362Z,3.10
2022-10-25T12:44:07.608Z,3.67
2022-10-25T12:45:54.693Z,2.47
2022-10-25T12:47:48.656Z,3.30
2022-10-25T12:49:23.347Z,3.27
2022-10-25T12:51:02.221Z,3.47
2022-10-25T12:52:40.819Z,2.50
2022-10-25T12:54:27.761Z,3.37
2022-10-25T12:56:11.536Z,2.90
2022-10-25T12:58:02.235Z,2.50
2022-10-25T12:59:55.597Z,2.63
2022-10-25T13:01:46.588Z,2.70
2022-10-25T13:03:35.559Z,2.77
2022-10-25T13:05:06.334Z,2.40
2022-10-25T13:06:34.358Z,2.80
2022-10-25T13:08:02.804Z,2.47
2022-10-25T13:09:32.429Z,2.70
2022-10-25T13:11:00.356Z,2.13
2022-10-25T13:12:23.992Z,3.20
2022-10-25T13:13:52.060Z,2.87
2022-10-25T13:15:19.006Z,3.03
2022-10-25T13:16:41.318Z,2.33
2022-10-25T13:18:06.520Z,2.50
2022-10-25T13:21:17.339Z,2.43
2022-10-25T13:22:41.358Z,2.70
2022-10-25T13:24:03.673Z,2.97
2022-10-25T13:25:31.878Z,2.23
2022-10-25T13:27:12.368Z,2.23
2022-10-25T13:28:46.849Z,2.40
2022-10-25T13:30:13.062Z,3.07
2022-10-25T13:31:35.172Z,2.33
2022-10-25T13:33:24.490Z,2.47
2022-10-25T13:34:47.386Z,2.13
2022-10-25T13:36:09.590Z,2.53
2022-10-25T13:37:41.084Z,2.20
2022-10-25T13:39:05.410Z,2.40
2022-10-25T13:40:31.539Z,2.13
2022-10-25T13:42:15.954Z,2.10
2022-10-25T13:44:04.689Z,2.03
2022-10-25T13:45:35.704Z,1.67
2022-10-25T13:46:57.747Z,2.47
2022-10-25T13:48:30.513Z,1.60
2022-10-25T13:49:52.772Z,1.93
2022-10-25T13:51:16.873Z,2.40
2022-10-25T13:53:03.085Z,2.60
2022-10-25T13:54:42.419Z,2.47
2022-10-25T13:56:07.765Z,2.00
2022-10-25T13:57:52.591Z,2.00
2022-10-25T13:59:58.499Z,2.33
2022-10-25T14:01:24.983Z,2.07
2022-10-25T14:03:09.143Z,2.00
2022-10-25T14:04:37.718Z,2.40
2022-10-25T14:05:59.696Z,2.97
2022-10-25T14:07:51.398Z,2.03
2022-10-25T14:09:36.417Z,2.20
2022-10-25T14:11:57.747Z,2.00
2022-10-25T14:13:30.404Z,2.60
2022-10-25T14:15:21.360Z,2.20
2022-10-25T14:17:13.498Z,2.57
2022-10-25T14:18:36.907Z,2.33
2022-10-25T14:20:04.027Z,2.07
2022-10-25T14:21:26.671Z,2.73
2022-10-25T14:23:00.658Z,1.97
2022-10-25T14:24:23.129Z,2.67
2022-10-25T14:25:55.396Z,2.90
2022-10-25T14:27:26.155Z,2.10
2022-10-25T14:28:48.625Z,2.23
2022-10-25T14:30:13.528Z,2.37
2022-10-25T14:31:35.595Z,2.40
2022-10-25T14:33:04.095Z,1.97
2022-10-25T14:34:29.960Z,2.97
2022-10-25T14:36:04.841Z,2.80
2022-10-25T14:37:26.899Z,2.40
2022-10-25T14:38:59.612Z,2.37
2022-10-25T14:40:24.673Z,2.53
2022-10-25T14:42:03.212Z,2.73
2022-10-25T14:43:28.824Z,2.40
2022-10-25T14:44:51.258Z,2.73
2022-10-25T14:46:17.905Z,2.83
2022-10-25T14:47:42.291Z,3.40
2022-10-25T14:49:04.381Z,2.63
2022-10-25T14:50:26.604Z,2.33
2022-10-25T14:51:54.319Z,2.93
2022-10-25T14:53:17.811Z,2.13
2022-10-25T14:54:41.890Z,2.47
2022-10-25T14:56:05.755Z,2.73
2022-10-25T14:57:28.825Z,2.57
2022-10-25T14:58:51.033Z,2.37
2022-10-25T15:00:18.858Z,2.13
2022-10-25T15:01:41.381Z,2.70
2022-10-25T15:03:05.206Z,3.50
2022-10-25T15:04:38.690Z,2.80
2022-10-25T15:06:00.885Z,2.27
2022-10-25T15:07:25.549Z,3.10
2022-10-25T15:08:52.233Z,3.40
2022-10-25T15:10:35.917Z,3.40
2022-10-25T15:12:13.197Z,3.00
2022-10-25T15:13:38.120Z,3.17
2022-10-25T15:15:44.802Z,2.63
2022-10-25T15:17:24.081Z,3.27
2022-10-25T15:19:01.962Z,3.20
2022-10-25T15:20:32.694Z,2.93
2022-10-25T15:22:06.643Z,3.10
2022-10-25T15:23:28.743Z,2.90
2022-10-25T15:24:50.799Z,2.70
2022-10-25T15:26:30.217Z,3.23
2022-10-25T15:27:57.159Z,3.43
2022-10-25T15:29:40.520Z,3.40
2022-10-25T15:31:07.311Z,2.90
2022-10-25T15:32:29.309Z,2.90
2022-10-25T15:34:02.206Z,3.77
2022-10-25T15:35:26.648Z,3.63
2022-10-25T15:36:49.896Z,3.30
2022-10-25T15:38:11.949Z,3.40
2022-10-25T15:39:34.034Z,3.73
2022-10-25T15:40:56.473Z,3.00
2022-10-25T15:42:19.249Z,3.90
2022-10-25T15:43:41.237Z,3.30
2022-10-25T15:45:04.599Z,3.80
2022-10-25T15:46:33.255Z,3.33
2022-10-25T15:47:57.473Z,4.10
2022-10-25T15:49:19.686Z,3.10
2022-10-25T15:50:47.283Z,3.70
2022-10-25T15:52:15.193Z,3.83
2022-10-25T15:53:37.263Z,4.13
2022-10-25T15:54:59.303Z,3.03
2022-10-25T15:56:21.721Z,3.77
2022-10-25T15:57:43.765Z,3.20
2022-10-25T15:59:05.863Z,4.20
2022-10-25T16:00:30.650Z,3.30
2022-10-25T16:01:55.039Z,4.20
2022-10-25T16:03:22.573Z,4.30
2022-10-25T16:04:44.748Z,4.47
2022-10-25T16:06:06.965Z,4.40
2022-10-25T16:07:30.552Z,5.23
2022-10-25T16:08:52.521Z,5.33
2022-10-25T16:10:15.162Z,5.07
2022-10-25T16:11:43.614Z,4.50
2022-10-25T16:13:32.996Z,4.97
2022-10-25T16:14:55.190Z,4.23
2022-10-25T16:16:41.491Z,4.13
2022-10-25T16:18:04.018Z,4.30
2022-10-25T16:19:28.293Z,4.10
2022-10-25T16:20:50.955Z,4.43
2022-10-25T16:22:12.991Z,4.70
2022-10-25T16:23:35.049Z,4.10
2022-10-25T16:24:57.073Z,4.43
2022-10-25T16:26:33.588Z,4.17
2022-10-25T16:27:55.709Z,4.00
2022-10-25T16:29:24.693Z,3.90
2022-10-25T16:30:47.694Z,4.03
2022-10-25T16:32:10.266Z,3.97
2022-10-25T16:33:32.275Z,4.20
2022-10-25T16:34:54.327Z,4.30
2022-10-25T16:36:16.548Z,4.10
2022-10-25T16:37:38.655Z,3.83
2022-10-25T16:39:00.705Z,3.53
2022-10-25T16:40:23.111Z,3.73
2022-10-25T16:41:46.237Z,4.10
2022-10-25T16:43:11.618Z,4.37
2022-10-25T16:44:35.165Z,3.80
2022-10-25T16:45:57.198Z,4.27
2022-10-25T16:47:21.401Z,4.30
2022-10-25T16:48:43.490Z,4.37
2022-10-25T16:50:06.074Z,3.80
2022-10-25T16:51:28.749Z,4.33
2022-10-25T16:52:52.063Z,4.87
2022-10-25T16:54:15.784Z,4.60
2022-10-25T16:55:37.933Z,5.10
2022-10-25T16:56:59.965Z,4.67
2022-10-25T16:58:21.973Z,4.77
2022-10-25T16:59:44.107Z,4.43
2022-10-25T17:01:28.952Z,4.97
2022-10-25T17:02:51.640Z,4.43
2022-10-25T17:04:14.691Z,4.73
2022-10-25T17:05:38.935Z,4.80
2022-10-25T17:07:01.020Z,4.30
2022-10-25T17:08:23.048Z,5.10
2022-10-25T17:09:45.480Z,5.10
2022-10-25T17:11:07.681Z,5.70
2022-10-25T17:12:29.720Z,6.27
2022-10-25T17:13:51.793Z,5.30
2022-10-25T17:15:14.838Z,5.00
2022-10-25T17:16:39.588Z,4.83
2022-10-25T17:18:01.682Z,6.00
2022-10-25T17:19:23.781Z,6.20
2022-10-25T17:20:45.812Z,4.80
2022-10-25T17:22:07.952Z,5.20
2022-10-25T17:23:29.950Z,6.43
2022-10-25T17:24:51.964Z,5.83
2022-10-25T17:26:14.057Z,6.20
2022-10-25T17:27:39.636Z,5.10
2022-10-25T17:29:01.902Z,5.53
2022-10-25T17:30:24.020Z,5.00
2022-10-25T17:31:46.111Z,5.90
2022-10-25T17:33:08.162Z,5.43
2022-10-25T17:34:32.120Z,5.33
2022-10-25T17:35:54.370Z,5.17
2022-10-25T17:37:16.386Z,4.87
2022-10-25T17:38:38.762Z,6.13
2022-10-25T17:40:01.190Z,6.70
2022-10-25T17:41:23.268Z,5.27
2022-10-25T17:42:46.011Z,5.60
2022-10-25T17:44:10.703Z,5.70
2022-10-25T17:45:32.921Z,5.60
2022-10-25T17:46:56.447Z,4.90
2022-10-25T17:48:20.665Z,4.80
2022-10-25T17:49:42.880Z,5.53
2022-10-25T17:51:07.577Z,5.40
2022-10-25T17:52:29.936Z,5.07
2022-10-25T17:53:56.533Z,5.37
2022-10-25T17:55:18.620Z,5.23
2022-10-25T17:56:40.686Z,5.57
2022-10-25T17:58:03.311Z,4.80
2022-10-25T17:59:26.922Z,5.73
2022-10-25T18:00:49.198Z,5.77
2022-10-25T18:02:12.194Z,5.10
2022-10-25T18:03:34.507Z,4.70
2022-10-25T18:05:18.966Z,5.73
2022-10-25T18:06:39.068Z,5.10
2022-10-25T18:08:01.039Z,5.13
2022-10-25T18:09:23.085Z,5.37
2022-10-25T18:10:45.233Z,5.60
2022-10-25T18:12:09.491Z,5.00
2022-10-25T18:13:31.465Z,5.03
2022-10-25T18:14:55.642Z,5.97
2022-10-25T18:16:18.221Z,5.40
2022-10-25T18:17:40.815Z,6.30
2022-10-25T18:19:05.357Z,6.10
2022-10-25T18:20:27.345Z,6.30
2022-10-25T18:21:49.403Z,5.27
2022-10-25T18:23:13.491Z,5.77
2022-10-25T18:24:37.103Z,5.17
2022-10-25T18:25:59.452Z,5.17
2022-10-25T18:27:21.594Z,5.40
2022-10-25T18:28:43.923Z,5.20
2022-10-25T18:30:06.846Z,5.70
2022-10-25T18:31:29.030Z,5.63
2022-10-25T18:32:51.331Z,5.93
2022-10-25T18:34:13.446Z,5.03
2022-10-25T18:35:35.617Z,5.30
2022-10-25T18:36:57.788Z,5.40
2022-10-25T18:38:19.797Z,5.30
2022-10-25T18:39:41.813Z,5.80
2022-10-25T18:41:14.022Z,5.77
2022-10-25T18:42:36.537Z,5.80
2022-10-25T18:43:59.165Z,4.87
2022-10-25T18:45:21.230Z,5.13
2022-10-25T18:46:43.457Z,5.17
2022-10-25T18:48:05.690Z,5.30
2022-10-25T18:49:27.770Z,5.63
2022-10-25T18:50:49.788Z,5.90
2022-10-25T18:52:11.921Z,5.43
2022-10-25T18:53:38.608Z,5.10
2022-10-25T18:55:00.638Z,4.80
2022-10-25T18:56:23.149Z,5.17
2022-10-25T18:57:45.218Z,6.10
2022-10-25T18:59:09.322Z,6.20
2022-10-25T19:00:31.485Z,5.07
2022-10-25T19:01:53.670Z,5.70
2022-10-25T19:03:16.477Z,5.80
2022-10-25T19:04:38.496Z,5.90
2022-10-25T19:06:00.537Z,5.77
2022-10-25T19:07:22.510Z,5.80
2022-10-25T19:08:44.903Z,6.40
2022-10-25T19:10:07.172Z,5.50
2022-10-25T19:11:30.026Z,5.90
2022-10-25T19:12:52.736Z,5.20
2022-10-25T19:14:14.817Z,5.43
2022-10-25T19:15:36.797Z,5.83
2022-10-25T19:16:58.821Z,6.07
2022-10-25T19:18:23.203Z,4.67
2022-10-25T19:19:45.270Z,4.97
2022-10-25T19:21:12.348Z,5.03
2022-10-25T19:22:34.604Z,5.47
2022-10-25T19:23:57.071Z,5.80
2022-10-25T19:25:23.007Z,5.70
2022-10-25T19:26:46.139Z,5.67
2022-10-25T19:28:08.715Z,6.10
2022-10-25T19:29:30.698Z,5.60